Time;durP1;ratioP1;P1;durP2;ratioP2;P2;SDS_P1;SDS_P2;PMS_P1;PMS_P2;Temp;Humidity;BMP_temperature;BMP_pressure;BME280_temperature;BME280_humidity;BME280_pressure;Samples;Min_cycle;Max_cycle;Signal;HPM_P1;HPM_P2
2023/09/02 00:00:16;;;;;;;5.72;2.65;;;;;;;;;;5112647;28;20044;-64
2023/09/02 00:02:44;;;;;;;3.40;2.30;;;;;;;;;;5113059;28;20399;-64
2023/09/02 00:05:11;;;;;;;4.78;2.88;;;;;;;;;;5113291;28;20043;-64
2023/09/02 00:07:38;;;;;;;4.15;2.78;;;;;;;;;;5112424;28;20069;-64
2023/09/02 00:10:06;;;;;;;3.50;2.25;;;;;;;;;;5112751;28;20047;-64
2023/09/02 00:12:34;;;;;;;3.90;2.80;;;;;;;;;;5108717;28;20134;-64
2023/09/02 00:15:02;;;;;;;3.95;2.67;;;;;;;;;;5108102;28;20074;-64
2023/09/02 00:17:29;;;;;;;4.18;2.70;;;;;;;;;;5112634;28;20052;-64
2023/09/02 00:19:56;;;;;;;3.65;2.60;;;;;;;;;;5090131;28;20062;-64
2023/09/02 00:22:23;;;;;;;5.93;2.85;;;;;;;;;;5112106;28;20058;-64
2023/09/02 00:24:51;;;;;;;3.67;2.53;;;;;;;;;;5111602;28;20134;-64
2023/09/02 00:27:18;;;;;;;4.32;2.60;;;;;;;;;;5109757;28;20052;-64
2023/09/02 00:29:46;;;;;;;4.95;2.75;;;;;;;;;;5112739;28;20486;-64
2023/09/02 00:32:14;;;;;;;4.55;2.55;;;;;;;;;;5112442;28;20059;-64
2023/09/02 00:34:41;;;;;;;3.63;2.67;;;;;;;;;;5109942;28;20413;-64
2023/09/02 00:37:08;;;;;;;5.25;2.78;;;;;;;;;;5113424;28;20542;-64
2023/09/02 00:39:36;;;;;;;6.47;3.00;;;;;;;;;;5111411;28;20039;-64
2023/09/02 00:42:04;;;;;;;4.20;2.67;;;;;;;;;;5111362;28;20051;-64
2023/09/02 00:44:31;;;;;;;4.65;2.92;;;;;;;;;;5094800;28;20402;-64
2023/09/02 00:47:01;;;;;;;5.78;2.90;;;;;;;;;;5111618;28;20051;-64
2023/09/02 00:49:28;;;;;;;4.85;2.80;;;;;;;;;;5111568;28;20042;-64
2023/09/02 00:51:55;;;;;;;4.95;3.00;;;;;;;;;;5112022;28;20046;-64
2023/09/02 00:54:22;;;;;;;6.78;2.60;;;;;;;;;;5111970;28;20043;-64
2023/09/02 00:56:49;;;;;;;4.13;2.80;;;;;;;;;;5111599;28;20059;-64
2023/09/02 00:59:17;;;;;;;3.85;2.60;;;;;;;;;;5110503;28;20039;-64
2023/09/02 01:01:45;;;;;;;4.32;2.80;;;;;;;;;;5108936;28;20130;-64
2023/09/02 01:04:14;;;;;;;6.53;2.83;;;;;;;;;;5111400;28;20050;-64
2023/09/02 01:06:42;;;;;;;4.30;2.80;;;;;;;;;;5110712;28;20372;-64
2023/09/02 01:09:10;;;;;;;4.35;3.05;;;;;;;;;;5111726;28;20122;-64
2023/09/02 01:11:37;;;;;;;4.78;3.10;;;;;;;;;;5111146;28;20047;-64
2023/09/02 01:14:04;;;;;;;4.90;2.90;;;;;;;;;;5110812;28;20063;-64
2023/09/02 01:16:32;;;;;;;4.72;2.90;;;;;;;;;;5111417;28;20043;-65
2023/09/02 01:18:59;;;;;;;5.00;3.20;;;;;;;;;;5106823;28;20113;-64
2023/09/02 01:21:41;;;;;;;5.85;3.13;;;;;;;;;;5093448;28;20048;-64
2023/09/02 01:24:18;;;;;;;4.50;2.85;;;;;;;;;;5109342;28;20044;-64
2023/09/02 01:27:05;;;;;;;4.22;2.85;;;;;;;;;;5108618;28;20048;-64
2023/09/02 01:29:35;;;;;;;6.35;3.40;;;;;;;;;;5109268;28;20052;-64
2023/09/02 01:32:02;;;;;;;5.75;3.15;;;;;;;;;;5092038;28;20070;-64
2023/09/02 01:34:30;;;;;;;5.30;3.00;;;;;;;;;;5112100;28;20575;-64
2023/09/02 01:36:59;;;;;;;4.57;3.22;;;;;;;;;;5109072;28;20051;-64
2023/09/02 01:39:27;;;;;;;4.47;3.10;;;;;;;;;;5111686;28;20048;-64
2023/09/02 01:41:55;;;;;;;4.88;3.20;;;;;;;;;;5105060;28;20060;-64
2023/09/02 01:44:24;;;;;;;6.00;3.40;;;;;;;;;;5111333;28;20048;-64
2023/09/02 01:46:52;;;;;;;5.00;3.15;;;;;;;;;;5109874;28;20517;-64
2023/09/02 01:49:19;;;;;;;6.72;3.20;;;;;;;;;;5107156;28;20051;-64
2023/09/02 01:51:46;;;;;;;6.00;3.47;;;;;;;;;;5109838;28;20419;-64
2023/09/02 01:54:14;;;;;;;4.38;3.00;;;;;;;;;;5111642;28;20055;-64
2023/09/02 01:56:41;;;;;;;4.95;3.17;;;;;;;;;;5102358;28;20077;-64
2023/09/02 01:59:08;;;;;;;5.57;2.80;;;;;;;;;;5110900;28;20725;-64
2023/09/02 02:01:37;;;;;;;5.32;3.28;;;;;;;;;;5106786;28;20043;-64
2023/09/02 02:04:07;;;;;;;5.03;3.10;;;;;;;;;;5110293;28;20051;-64
2023/09/02 02:06:36;;;;;;;6.57;3.17;;;;;;;;;;5110828;28;20055;-64
2023/09/02 02:09:05;;;;;;;3.95;2.88;;;;;;;;;;5109850;28;20051;-64
2023/09/02 02:11:35;;;;;;;3.83;2.90;;;;;;;;;;5093512;28;20040;-64
2023/09/02 02:14:03;;;;;;;4.55;2.70;;;;;;;;;;5110257;28;20073;-64
2023/09/02 02:16:30;;;;;;;4.85;3.00;;;;;;;;;;5109614;28;20086;-64
2023/09/02 02:18:59;;;;;;;5.00;3.22;;;;;;;;;;5108956;28;20506;-64
2023/09/02 02:21:27;;;;;;;3.65;2.60;;;;;;;;;;5110245;28;20051;-64
2023/09/02 02:23:54;;;;;;;5.53;3.20;;;;;;;;;;5108863;28;20406;-64
2023/09/02 02:26:21;;;;;;;5.05;3.28;;;;;;;;;;5104098;28;20056;-64
2023/09/02 02:28:49;;;;;;;6.90;3.55;;;;;;;;;;5107652;28;20056;-64
2023/09/02 02:31:16;;;;;;;5.60;3.25;;;;;;;;;;5110476;28;20051;-64
2023/09/02 02:33:43;;;;;;;5.05;3.38;;;;;;;;;;5109812;28;20051;-64
2023/09/02 02:36:12;;;;;;;6.05;3.80;;;;;;;;;;5111015;28;20487;-64
2023/09/02 02:38:39;;;;;;;5.30;3.40;;;;;;;;;;5110187;28;20050;-64
2023/09/02 02:41:06;;;;;;;5.03;3.70;;;;;;;;;;5109884;28;20039;-64
2023/09/02 02:43:33;;;;;;;5.30;3.55;;;;;;;;;;5109927;28;20056;-64
2023/09/02 02:46:00;;;;;;;5.05;3.30;;;;;;;;;;5108197;28;20036;-64
2023/09/02 02:48:29;;;;;;;8.38;3.95;;;;;;;;;;5109610;28;20043;-64
2023/09/02 02:50:57;;;;;;;6.53;3.65;;;;;;;;;;5110454;28;20142;-64
2023/09/02 02:53:25;;;;;;;7.07;3.83;;;;;;;;;;5094064;28;20055;-63
2023/09/02 02:55:53;;;;;;;7.18;3.80;;;;;;;;;;5106853;28;20546;-64
2023/09/02 02:58:21;;;;;;;4.75;3.55;;;;;;;;;;5110896;28;20170;-64
2023/09/02 03:00:49;;;;;;;5.90;3.80;;;;;;;;;;5089770;28;20063;-64
2023/09/02 03:03:16;;;;;;;5.28;3.33;;;;;;;;;;5110182;28;20047;-64
2023/09/02 03:05:43;;;;;;;6.93;3.75;;;;;;;;;;5110417;28;20039;-64
2023/09/02 03:08:11;;;;;;;5.70;3.47;;;;;;;;;;5092505;28;20134;-64
2023/09/02 03:10:40;;;;;;;6.28;3.25;;;;;;;;;;5110129;28;20047;-64
2023/09/02 03:13:07;;;;;;;6.00;3.75;;;;;;;;;;5110931;28;20048;-64
2023/09/02 03:15:34;;;;;;;4.57;3.10;;;;;;;;;;5104961;28;20051;-63
2023/09/02 03:18:02;;;;;;;5.57;3.28;;;;;;;;;;5109982;28;20157;-65
2023/09/02 03:20:29;;;;;;;5.82;3.58;;;;;;;;;;5091535;28;20478;-64
2023/09/02 03:22:56;;;;;;;5.88;3.70;;;;;;;;;;5109488;28;20048;-64
2023/09/02 03:25:27;;;;;;;7.35;4.00;;;;;;;;;;5109952;28;20496;-64
2023/09/02 03:27:55;;;;;;;6.35;3.63;;;;;;;;;;5109135;28;20482;-64
2023/09/02 03:30:22;;;;;;;6.55;3.80;;;;;;;;;;5111463;28;20055;-64
2023/09/02 03:32:50;;;;;;;5.97;3.50;;;;;;;;;;5113561;28;20066;-64
2023/09/02 03:35:17;;;;;;;5.75;3.60;;;;;;;;;;5113694;28;20044;-64
2023/09/02 03:37:44;;;;;;;6.75;3.78;;;;;;;;;;5095916;28;20047;-64
2023/09/02 03:40:12;;;;;;;5.97;4.18;;;;;;;;;;5113299;27;20048;-64
2023/09/02 03:42:39;;;;;;;5.53;3.85;;;;;;;;;;5111477;28;20054;-64
2023/09/02 03:45:09;;;;;;;5.30;3.75;;;;;;;;;;5111970;28;20039;-64
2023/09/02 03:47:36;;;;;;;5.95;3.85;;;;;;;;;;5112564;28;20048;-64
2023/09/02 03:50:04;;;;;;;10.95;4.35;;;;;;;;;;5114677;27;20487;-64
2023/09/02 03:52:31;;;;;;;6.07;3.92;;;;;;;;;;5113788;28;20392;-64
2023/09/02 03:54:59;;;;;;;6.68;3.92;;;;;;;;;;5112573;28;20414;-64
2023/09/02 03:57:26;;;;;;;5.60;3.70;;;;;;;;;;5113813;28;20477;-64
2023/09/02 03:59:53;;;;;;;5.85;3.70;;;;;;;;;;5111732;28;20043;-64
2023/09/02 04:02:22;;;;;;;6.30;3.47;;;;;;;;;;5113413;28;20197;-64
2023/09/02 04:04:49;;;;;;;5.50;3.92;;;;;;;;;;5111885;28;20430;-64
2023/09/02 04:07:16;;;;;;;5.50;3.67;;;;;;;;;;5108564;28;20427;-64
2023/09/02 04:09:44;;;;;;;6.35;3.60;;;;;;;;;;5112548;28;20043;-64
2023/09/02 04:12:11;;;;;;;8.25;4.13;;;;;;;;;;5097368;28;20051;-64
2023/09/02 04:14:38;;;;;;;7.65;3.90;;;;;;;;;;5107916;28;20399;-64
2023/09/02 04:17:05;;;;;;;7.07;3.97;;;;;;;;;;5112407;28;20040;-64
2023/09/02 04:19:34;;;;;;;6.10;3.90;;;;;;;;;;5112280;28;20931;-64
2023/09/02 04:22:01;;;;;;;6.53;3.83;;;;;;;;;;5111415;28;20514;-64
2023/09/02 04:24:29;;;;;;;5.47;3.72;;;;;;;;;;5099734;28;20062;-64
2023/09/02 04:26:57;;;;;;;6.28;3.78;;;;;;;;;;5112821;28;20075;-64
2023/09/02 04:29:24;;;;;;;6.47;3.80;;;;;;;;;;5112187;28;20043;-64
2023/09/02 04:31:53;;;;;;;8.15;4.53;;;;;;;;;;5112431;28;20795;-64
2023/09/02 04:34:20;;;;;;;5.47;3.67;;;;;;;;;;5112777;28;20046;-64
2023/09/02 04:36:49;;;;;;;5.97;3.90;;;;;;;;;;5111816;28;20047;-64
2023/09/02 04:39:16;;;;;;;6.78;4.47;;;;;;;;;;5112073;28;20482;-64
2023/09/02 04:41:43;;;;;;;8.63;4.47;;;;;;;;;;5110285;28;20142;-64
2023/09/02 04:44:11;;;;;;;6.22;4.03;;;;;;;;;;5112364;28;20055;-64
2023/09/02 04:46:38;;;;;;;6.95;4.32;;;;;;;;;;5104993;28;20043;-64
2023/09/02 04:49:05;;;;;;;7.82;4.00;;;;;;;;;;5110433;27;20123;-64
2023/09/02 04:51:32;;;;;;;6.93;4.25;;;;;;;;;;5111970;28;20414;-64
2023/09/02 04:54:01;;;;;;;6.93;4.22;;;;;;;;;;5111720;28;20051;-64
2023/09/02 04:56:28;;;;;;;8.52;4.25;;;;;;;;;;5111269;28;20051;-64
2023/09/02 04:58:56;;;;;;;6.70;4.03;;;;;;;;;;5089411;28;20383;-64
2023/09/02 05:01:23;;;;;;;7.55;4.18;;;;;;;;;;5110941;28;20489;-64
2023/09/02 05:03:51;;;;;;;8.75;4.10;;;;;;;;;;5110208;28;20097;-64
2023/09/02 05:06:18;;;;;;;7.38;4.03;;;;;;;;;;5111113;28;20402;-64
2023/09/02 05:08:45;;;;;;;6.05;3.90;;;;;;;;;;5111503;28;20050;-64
2023/09/02 05:11:14;;;;;;;12.75;4.20;;;;;;;;;;5112015;28;20052;-64
2023/09/02 05:13:41;;;;;;;12.98;4.20;;;;;;;;;;5111308;28;21378;-63
2023/09/02 05:16:08;;;;;;;7.18;3.90;;;;;;;;;;5111902;28;20090;-64
2023/09/02 05:18:35;;;;;;;8.80;4.25;;;;;;;;;;5111121;28;20055;-63
2023/09/02 05:21:02;;;;;;;6.30;4.07;;;;;;;;;;5092731;28;20509;-64
2023/09/02 05:23:30;;;;;;;5.82;4.28;;;;;;;;;;5111590;28;20043;-64
2023/09/02 05:25:57;;;;;;;8.82;4.30;;;;;;;;;;5111701;28;20078;-64
2023/09/02 05:28:26;;;;;;;9.18;4.57;;;;;;;;;;5110673;28;20039;-64
2023/09/02 05:30:54;;;;;;;9.45;4.80;;;;;;;;;;5111335;28;20078;-64
2023/09/02 05:33:21;;;;;;;9.20;5.03;;;;;;;;;;5109395;28;20084;-64
2023/09/02 05:35:48;;;;;;;6.93;4.05;;;;;;;;;;5111856;28;20073;-64
2023/09/02 05:38:15;;;;;;;8.15;4.60;;;;;;;;;;5110860;28;20076;-64
2023/09/02 05:40:43;;;;;;;9.35;4.72;;;;;;;;;;5109478;28;20039;-64
2023/09/02 05:43:10;;;;;;;7.43;4.53;;;;;;;;;;5109908;28;20517;-64
2023/09/02 05:45:39;;;;;;;8.73;4.85;;;;;;;;;;5093398;28;20054;-64
2023/09/02 05:48:07;;;;;;;7.97;4.40;;;;;;;;;;5112178;27;20051;-64
2023/09/02 05:50:34;;;;;;;7.78;4.80;;;;;;;;;;5110682;28;20069;-64
2023/09/02 05:53:02;;;;;;;6.70;4.57;;;;;;;;;;5110565;28;20811;-64
2023/09/02 05:55:29;;;;;;;9.18;5.28;;;;;;;;;;5110602;28;20040;-64
2023/09/02 05:57:56;;;;;;;8.43;4.95;;;;;;;;;;5105879;28;20054;-64
2023/09/02 06:00:23;;;;;;;7.97;5.10;;;;;;;;;;5104385;28;20051;-64
2023/09/02 06:02:52;;;;;;;11.73;5.22;;;;;;;;;;5105164;28;20203;-64
2023/09/02 06:05:19;;;;;;;8.48;5.55;;;;;;;;;;5109830;28;20415;-64
2023/09/02 06:07:46;;;;;;;10.07;5.00;;;;;;;;;;5110720;28;20051;-64
2023/09/02 06:10:14;;;;;;;8.30;4.95;;;;;;;;;;5111022;28;20048;-64
2023/09/02 06:12:41;;;;;;;12.35;5.40;;;;;;;;;;5110513;28;20479;-64
2023/09/02 06:15:09;;;;;;;9.90;5.60;;;;;;;;;;5110324;28;20051;-64
2023/09/02 06:17:36;;;;;;;8.07;4.90;;;;;;;;;;5105289;28;20043;-64
2023/09/02 06:20:05;;;;;;;9.73;5.45;;;;;;;;;;5110598;28;20047;-64
2023/09/02 06:22:32;;;;;;;8.57;5.40;;;;;;;;;;5107428;28;20048;-64
2023/09/02 06:25:00;;;;;;;9.23;5.82;;;;;;;;;;5090895;28;20051;-64
2023/09/02 06:27:28;;;;;;;9.65;5.43;;;;;;;;;;5110144;28;20074;-64
2023/09/02 06:29:55;;;;;;;8.30;5.18;;;;;;;;;;5110318;28;20059;-64
2023/09/02 06:32:22;;;;;;;9.50;5.40;;;;;;;;;;5109603;28;20061;-64
2023/09/02 06:34:50;;;;;;;12.32;5.45;;;;;;;;;;5108515;28;20081;-65
2023/09/02 06:37:18;;;;;;;10.60;5.40;;;;;;;;;;5108386;28;20047;-64
2023/09/02 06:39:45;;;;;;;8.90;5.45;;;;;;;;;;5110738;28;20514;-64
2023/09/02 06:42:13;;;;;;;10.32;5.18;;;;;;;;;;5105180;28;20052;-64
2023/09/02 06:44:40;;;;;;;9.15;6.07;;;;;;;;;;5110617;28;20499;-64
2023/09/02 06:47:07;;;;;;;8.65;5.88;;;;;;;;;;5104686;28;20047;-64
2023/09/02 06:49:34;;;;;;;8.82;5.32;;;;;;;;;;5109335;28;20483;-64
2023/09/02 06:52:01;;;;;;;11.02;5.47;;;;;;;;;;5105113;28;20050;-64
2023/09/02 06:54:30;;;;;;;9.60;5.43;;;;;;;;;;5109636;28;20442;-64
2023/09/02 06:56:57;;;;;;;8.82;5.25;;;;;;;;;;5109977;28;20419;-64
2023/09/02 06:59:25;;;;;;;7.55;4.95;;;;;;;;;;5109580;28;20052;-64
2023/09/02 07:01:53;;;;;;;12.30;5.85;;;;;;;;;;5091540;28;20087;-65
2023/09/02 07:04:20;;;;;;;8.38;5.13;;;;;;;;;;5110462;28;20495;-65
2023/09/02 07:06:47;;;;;;;9.15;5.28;;;;;;;;;;5113531;28;20504;-64
2023/09/02 07:09:14;;;;;;;8.43;5.65;;;;;;;;;;5112607;28;20054;-64
2023/09/02 07:11:43;;;;;;;9.75;5.50;;;;;;;;;;5113827;28;20050;-64
2023/09/02 07:14:10;;;;;;;10.35;5.85;;;;;;;;;;5113266;28;20047;-64
2023/09/02 07:16:38;;;;;;;8.82;4.75;;;;;;;;;;5091475;28;20052;-64
2023/09/02 07:19:05;;;;;;;9.52;4.95;;;;;;;;;;5113422;28;20054;-64
2023/09/02 07:21:32;;;;;;;8.05;4.82;;;;;;;;;;5114010;28;20475;-64
2023/09/02 07:23:59;;;;;;;9.15;4.43;;;;;;;;;;5113359;28;20058;-64
2023/09/02 07:26:29;;;;;;;9.32;5.00;;;;;;;;;;5094721;28;20048;-64
2023/09/02 07:29:00;;;;;;;7.75;4.93;;;;;;;;;;5113042;28;20141;-64
2023/09/02 07:31:27;;;;;;;6.68;4.70;;;;;;;;;;5113598;28;20047;-64
2023/09/02 07:33:55;;;;;;;8.82;4.97;;;;;;;;;;5088127;28;20056;-64
2023/09/02 07:36:22;;;;;;;8.00;5.05;;;;;;;;;;5114048;28;20074;-64
2023/09/02 07:38:49;;;;;;;13.40;4.78;;;;;;;;;;5094828;28;20054;-64
2023/09/02 07:41:16;;;;;;;7.85;4.53;;;;;;;;;;5113101;28;20048;-64
2023/09/02 07:43:43;;;;;;;7.57;4.88;;;;;;;;;;5112762;28;20043;-65
2023/09/02 07:46:12;;;;;;;6.57;4.30;;;;;;;;;;5113542;28;20074;-64
2023/09/02 07:48:40;;;;;;;7.18;4.22;;;;;;;;;;5113249;27;20043;-64
2023/09/02 07:51:07;;;;;;;7.07;4.38;;;;;;;;;;5113850;28;20036;-65
2023/09/02 07:53:34;;;;;;;5.72;4.28;;;;;;;;;;5094677;28;20078;-64
2023/09/02 07:56:01;;;;;;;8.00;4.47;;;;;;;;;;5112628;28;20052;-64
2023/09/02 07:58:28;;;;;;;7.22;4.57;;;;;;;;;;5113094;28;20044;-65
2023/09/02 08:00:56;;;;;;;5.40;3.45;;;;;;;;;;5113539;28;20051;-65
2023/09/02 08:03:25;;;;;;;5.13;3.20;;;;;;;;;;5111664;28;20098;-64
2023/09/02 08:05:52;;;;;;;4.95;3.55;;;;;;;;;;5113572;28;20047;-65
2023/09/02 08:08:19;;;;;;;6.60;3.33;;;;;;;;;;5112280;28;20044;-65
2023/09/02 08:10:47;;;;;;;7.45;3.58;;;;;;;;;;5095011;28;20129;-65
2023/09/02 08:13:14;;;;;;;5.18;3.00;;;;;;;;;;5113435;28;20070;-65
2023/09/02 08:15:41;;;;;;;4.35;2.88;;;;;;;;;;5111865;28;20048;-65
2023/09/02 08:18:08;;;;;;;3.88;2.47;;;;;;;;;;5109942;28;20054;-65
2023/09/02 08:20:37;;;;;;;3.80;2.00;;;;;;;;;;5112664;28;20039;-64
2023/09/02 08:23:04;;;;;;;4.10;2.03;;;;;;;;;;5112174;28;20061;-65
2023/09/02 08:25:32;;;;;;;4.28;2.05;;;;;;;;;;5112818;28;20047;-65
2023/09/02 08:27:59;;;;;;;3.72;1.70;;;;;;;;;;5111976;28;20047;-65
2023/09/02 08:30:26;;;;;;;4.03;2.40;;;;;;;;;;5113033;28;20047;-65
2023/09/02 08:32:53;;;;;;;5.50;2.53;;;;;;;;;;5111488;28;20415;-65
2023/09/02 08:35:20;;;;;;;3.05;2.28;;;;;;;;;;5094500;28;20447;-64
2023/09/02 08:37:51;;;;;;;2.70;2.10;;;;;;;;;;5112668;28;20043;-64
2023/09/02 08:40:18;;;;;;;2.50;1.73;;;;;;;;;;5112426;28;20054;-65
2023/09/02 08:42:46;;;;;;;4.22;2.08;;;;;;;;;;5111811;28;20047;-65
2023/09/02 08:45:14;;;;;;;5.10;2.28;;;;;;;;;;5107788;28;20047;-65
2023/09/02 08:47:41;;;;;;;3.55;2.08;;;;;;;;;;5111661;28;20055;-65
2023/09/02 08:50:09;;;;;;;3.35;1.95;;;;;;;;;;5111836;28;20040;-65
2023/09/02 08:52:37;;;;;;;5.68;2.50;;;;;;;;;;5112627;28;20375;-65
2023/09/02 08:55:06;;;;;;;5.45;1.90;;;;;;;;;;5092501;28;20146;-65
2023/09/02 08:57:34;;;;;;;4.25;2.63;;;;;;;;;;5111951;28;20054;-64
2023/09/02 09:00:01;;;;;;;4.70;2.38;;;;;;;;;;5111849;28;20071;-65
2023/09/02 09:02:29;;;;;;;3.58;2.10;;;;;;;;;;5111958;28;20059;-65
2023/09/02 09:05:00;;;;;;;4.53;2.10;;;;;;;;;;5111223;28;20050;-65
2023/09/02 09:07:28;;;;;;;3.25;2.10;;;;;;;;;;5112056;28;20419;-65
2023/09/02 09:09:57;;;;;;;4.32;1.95;;;;;;;;;;5111612;28;20043;-65
2023/09/02 09:12:27;;;;;;;1.67;1.30;;;;;;;;;;5094422;28;20050;-65
2023/09/02 09:14:55;;;;;;;5.03;1.70;;;;;;;;;;5111332;28;20054;-65
2023/09/02 09:17:23;;;;;;;4.97;1.80;;;;;;;;;;5110752;28;20525;-65
2023/09/02 09:19:51;;;;;;;7.22;2.50;;;;;;;;;;5111284;28;20055;-65
2023/09/02 09:22:18;;;;;;;4.57;1.95;;;;;;;;;;5110336;28;20044;-65
2023/09/02 09:24:45;;;;;;;4.70;2.03;;;;;;;;;;5111109;27;20063;-65
2023/09/02 09:27:13;;;;;;;4.05;2.10;;;;;;;;;;5111230;28;20062;-65
2023/09/02 09:29:43;;;;;;;4.47;2.42;;;;;;;;;;5111007;28;20047;-65
2023/09/02 09:32:10;;;;;;;3.17;1.88;;;;;;;;;;5111786;28;20070;-65
2023/09/02 09:34:38;;;;;;;4.95;2.58;;;;;;;;;;5110627;28;20093;-65
2023/09/02 09:37:06;;;;;;;3.67;2.17;;;;;;;;;;5092657;28;20047;-65
2023/09/02 09:39:43;;;;;;;4.10;2.10;;;;;;;;;;5111569;28;20093;-65
2023/09/02 09:42:12;;;;;;;5.55;1.98;;;;;;;;;;5109053;28;20074;-65
2023/09/02 09:44:52;;;;;;;3.65;1.98;;;;;;;;;;5110326;28;20081;-65
2023/09/02 09:47:19;;;;;;;3.10;2.13;;;;;;;;;;5109490;28;20039;-65
2023/09/02 09:49:49;;;;;;;5.95;2.13;;;;;;;;;;5111219;27;20133;-65
2023/09/02 09:52:16;;;;;;;4.40;2.17;;;;;;;;;;5109829;28;20052;-65
2023/09/02 09:54:47;;;;;;;3.60;2.50;;;;;;;;;;5110665;28;20486;-65
2023/09/02 09:57:16;;;;;;;7.40;2.47;;;;;;;;;;5108574;28;20460;-65
2023/09/02 09:59:52;;;;;;;2.72;2.10;;;;;;;;;;5110261;28;20546;-65
2023/09/02 10:02:20;;;;;;;5.35;2.08;;;;;;;;;;5110656;28;20553;-65
2023/09/02 10:04:52;;;;;;;7.18;2.42;;;;;;;;;;5107699;28;20043;-65
2023/09/02 10:07:22;;;;;;;5.10;2.42;;;;;;;;;;5107943;28;20047;-65
2023/09/02 10:09:49;;;;;;;3.67;2.20;;;;;;;;;;5107469;28;20051;-66
2023/09/02 10:12:17;;;;;;;3.92;2.08;;;;;;;;;;5110145;28;20105;-66
2023/09/02 10:14:45;;;;;;;3.38;2.08;;;;;;;;;;5094234;28;20046;-65
2023/09/02 10:17:13;;;;;;;2.45;1.50;;;;;;;;;;5109085;28;20050;-66
2023/09/02 10:19:41;;;;;;;3.78;1.30;;;;;;;;;;5110524;28;20040;-65
2023/09/02 10:22:09;;;;;;;2.40;1.10;;;;;;;;;;5109651;28;20106;-66
2023/09/02 10:24:39;;;;;;;3.08;1.23;;;;;;;;;;5109603;28;20490;-65
2023/09/02 10:27:08;;;;;;;3.72;1.17;;;;;;;;;;5110679;28;20047;-65
2023/09/02 10:29:38;;;;;;;3.15;1.13;;;;;;;;;;5109591;28;20454;-65
2023/09/02 10:32:08;;;;;;;1.48;1.00;;;;;;;;;;5105305;28;20050;-65
2023/09/02 10:34:41;;;;;;;1.83;1.02;;;;;;;;;;5110609;28;20074;-65
2023/09/02 10:37:12;;;;;;;1.50;0.90;;;;;;;;;;5110470;28;20043;-65
2023/09/02 10:39:42;;;;;;;3.10;1.08;;;;;;;;;;5111281;28;20051;-65
2023/09/02 10:42:10;;;;;;;2.05;0.85;;;;;;;;;;5114430;28;20043;-65
2023/09/02 10:44:37;;;;;;;1.95;0.80;;;;;;;;;;5114942;28;20040;-65
2023/09/02 10:47:05;;;;;;;1.00;0.80;;;;;;;;;;5107152;28;20050;-66
2023/09/02 10:49:32;;;;;;;1.60;0.90;;;;;;;;;;5111216;27;20044;-65
2023/09/02 10:52:01;;;;;;;4.93;0.90;;;;;;;;;;5107963;28;20050;-65
2023/09/02 10:55:00;;;;;;;2.53;0.55;;;;;;;;;;5112773;28;20051;-65
2023/09/02 10:57:27;;;;;;;3.67;0.75;;;;;;;;;;5109341;28;20087;-65
2023/09/02 11:00:12;;;;;;;2.35;0.70;;;;;;;;;;5106802;28;20047;-65
2023/09/02 11:02:40;;;;;;;1.13;0.60;;;;;;;;;;5107482;28;20058;-65
2023/09/02 11:05:08;;;;;;;2.03;0.63;;;;;;;;;;5093108;28;20052;-65
2023/09/02 11:07:39;;;;;;;3.25;0.85;;;;;;;;;;5107473;28;20043;-65
2023/09/02 11:10:07;;;;;;;1.25;0.60;;;;;;;;;;5107783;28;20706;-65
2023/09/02 11:12:34;;;;;;;1.73;0.73;;;;;;;;;;5107911;28;20058;-65
2023/09/02 11:15:13;;;;;;;2.17;0.70;;;;;;;;;;5109566;28;20070;-65
2023/09/02 11:17:41;;;;;;;4.32;0.80;;;;;;;;;;5093307;28;20053;-65
2023/09/02 11:20:09;;;;;;;1.20;0.60;;;;;;;;;;5109228;28;20058;-65
2023/09/02 11:22:51;;;;;;;4.40;0.80;;;;;;;;;;5111448;28;20052;-65
2023/09/02 11:25:28;;;;;;;1.05;0.60;;;;;;;;;;5112092;28;20119;-65
2023/09/02 11:27:56;;;;;;;1.08;0.50;;;;;;;;;;5113752;28;20047;-65
2023/09/02 11:30:24;;;;;;;2.03;0.70;;;;;;;;;;5108806;28;20059;-66
2023/09/02 11:32:51;;;;;;;1.15;0.70;;;;;;;;;;5112806;28;20058;-66
2023/09/02 11:35:24;;;;;;;1.80;0.70;;;;;;;;;;5112341;28;20047;-65
2023/09/02 11:37:52;;;;;;;0.90;0.52;;;;;;;;;;5111008;28;20036;-65
2023/09/02 11:40:20;;;;;;;3.63;0.82;;;;;;;;;;5111023;28;20402;-66
2023/09/02 11:42:51;;;;;;;2.15;0.63;;;;;;;;;;5108991;28;20069;-65
2023/09/02 11:45:18;;;;;;;1.40;0.60;;;;;;;;;;5112740;28;20067;-66
2023/09/02 11:47:46;;;;;;;1.85;1.05;;;;;;;;;;5113170;28;20078;-65
2023/09/02 11:50:14;;;;;;;1.60;0.80;;;;;;;;;;5112322;27;20047;-65
2023/09/02 11:52:41;;;;;;;1.63;0.80;;;;;;;;;;5113128;28;20408;-63
2023/09/02 11:55:11;;;;;;;2.75;1.00;;;;;;;;;;5111909;28;20043;-63
2023/09/02 11:57:38;;;;;;;1.73;0.90;;;;;;;;;;5111187;28;20051;-63
2023/09/02 12:00:07;;;;;;;2.65;0.70;;;;;;;;;;5112088;28;20052;-64
2023/09/02 12:02:36;;;;;;;2.22;0.98;;;;;;;;;;5112619;28;20096;-64
2023/09/02 12:05:03;;;;;;;1.27;0.80;;;;;;;;;;5111856;28;20466;-64
2023/09/02 12:07:32;;;;;;;2.08;0.90;;;;;;;;;;5113398;28;20047;-64
2023/09/02 12:10:05;;;;;;;1.23;0.90;;;;;;;;;;5111589;28;20047;-64
2023/09/02 12:12:34;;;;;;;1.02;0.90;;;;;;;;;;5113146;28;20047;-64
2023/09/02 12:15:02;;;;;;;2.10;0.75;;;;;;;;;;5111814;28;20035;-64
2023/09/02 12:17:30;;;;;;;2.60;0.80;;;;;;;;;;5102775;28;20044;-64
2023/09/02 12:19:57;;;;;;;1.13;0.88;;;;;;;;;;5112321;28;20052;-64
2023/09/02 12:22:25;;;;;;;3.33;1.00;;;;;;;;;;5111211;28;20046;-64
2023/09/02 12:24:52;;;;;;;0.90;0.70;;;;;;;;;;5111982;28;20051;-64
2023/09/02 12:27:19;;;;;;;1.00;0.90;;;;;;;;;;5108230;28;20055;-64
2023/09/02 12:29:58;;;;;;;0.82;0.80;;;;;;;;;;5095948;28;20058;-64
2023/09/02 12:32:25;;;;;;;1.80;0.98;;;;;;;;;;5111305;28;20498;-64
2023/09/02 12:34:53;;;;;;;1.45;0.90;;;;;;;;;;5112298;28;20043;-65
2023/09/02 12:37:20;;;;;;;1.23;0.95;;;;;;;;;;5111311;28;20050;-64
2023/09/02 12:39:48;;;;;;;1.13;1.02;;;;;;;;;;5094317;28;20108;-64
2023/09/02 12:42:19;;;;;;;1.88;1.20;;;;;;;;;;5094407;28;20491;-64
2023/09/02 12:44:50;;;;;;;1.30;1.00;;;;;;;;;;5112385;28;20465;-64
2023/09/02 12:47:22;;;;;;;3.13;1.83;;;;;;;;;;5111182;28;20043;-64
2023/09/02 12:49:49;;;;;;;2.55;1.67;;;;;;;;;;5110484;27;20052;-64
2023/09/02 12:52:17;;;;;;;1.55;1.25;;;;;;;;;;5092942;28;20115;-64
2023/09/02 12:54:53;;;;;;;1.77;1.05;;;;;;;;;;5108822;28;20044;-65
2023/09/02 12:57:20;;;;;;;1.83;1.50;;;;;;;;;;5109978;28;20051;-65
2023/09/02 12:59:47;;;;;;;2.20;1.50;;;;;;;;;;5109434;28;20595;-65
2023/09/02 13:02:15;;;;;;;1.40;1.30;;;;;;;;;;5110903;28;20044;-64
2023/09/02 13:04:43;;;;;;;1.90;1.30;;;;;;;;;;5110540;28;20048;-65
2023/09/02 13:07:11;;;;;;;1.88;1.17;;;;;;;;;;5108121;28;20104;-64
2023/09/02 13:09:39;;;;;;;1.40;1.30;;;;;;;;;;5111285;28;20460;-65
2023/09/02 13:12:07;;;;;;;1.38;1.20;;;;;;;;;;5111366;28;20079;-64
2023/09/02 13:14:34;;;;;;;1.50;1.08;;;;;;;;;;5104708;28;20047;-65
2023/09/02 13:17:01;;;;;;;1.88;1.30;;;;;;;;;;5108195;28;20058;-65
2023/09/02 13:19:29;;;;;;;2.00;1.45;;;;;;;;;;5107908;28;20055;-65
2023/09/02 13:21:58;;;;;;;2.60;1.90;;;;;;;;;;5111314;28;20372;-65
2023/09/02 13:24:26;;;;;;;1.83;1.30;;;;;;;;;;5110744;28;20047;-64
2023/09/02 13:26:54;;;;;;;1.70;1.10;;;;;;;;;;5110926;28;20043;-64
2023/09/02 13:29:23;;;;;;;2.08;1.35;;;;;;;;;;5109419;28;20069;-65
2023/09/02 13:31:51;;;;;;;2.10;1.13;;;;;;;;;;5108351;28;20089;-64
2023/09/02 13:34:31;;;;;;;2.67;1.20;;;;;;;;;;5107249;28;20047;-64
2023/09/02 13:37:05;;;;;;;2.10;1.05;;;;;;;;;;5113081;27;20490;-64
2023/09/02 13:39:32;;;;;;;2.70;1.40;;;;;;;;;;5110020;28;20058;-64
2023/09/02 13:42:00;;;;;;;2.35;1.50;;;;;;;;;;5113402;27;20043;-64
2023/09/02 13:44:28;;;;;;;3.03;1.60;;;;;;;;;;5110182;28;20449;-65
2023/09/02 13:46:56;;;;;;;3.00;1.40;;;;;;;;;;5107366;28;20112;-64
2023/09/02 13:49:23;;;;;;;1.52;1.10;;;;;;;;;;5107774;27;20060;-64
2023/09/02 13:51:51;;;;;;;1.60;0.90;;;;;;;;;;5108026;28;20051;-64
2023/09/02 13:54:23;;;;;;;3.20;2.30;;;;;;;;;;5110922;28;20055;-64
2023/09/02 13:56:50;;;;;;;1.33;1.00;;;;;;;;;;5089577;28;20055;-65
2023/09/02 13:59:17;;;;;;;2.00;1.23;;;;;;;;;;5109562;28;20051;-64
2023/09/02 14:01:45;;;;;;;1.35;1.00;;;;;;;;;;5110143;28;20490;-64
2023/09/02 14:04:12;;;;;;;1.00;0.80;;;;;;;;;;5110271;28;20062;-65
2023/09/02 14:06:40;;;;;;;1.25;0.73;;;;;;;;;;5108547;28;20055;-64
2023/09/02 14:09:07;;;;;;;1.00;0.80;;;;;;;;;;5104943;28;20044;-64
2023/09/02 14:11:35;;;;;;;1.40;1.00;;;;;;;;;;5109569;28;20406;-64
2023/09/02 14:14:03;;;;;;;1.50;1.00;;;;;;;;;;5109095;28;20384;-64
2023/09/02 14:16:31;;;;;;;1.38;1.00;;;;;;;;;;5108183;28;20059;-65
2023/09/02 14:18:58;;;;;;;1.33;0.90;;;;;;;;;;5107750;28;20059;-65
2023/09/02 14:21:25;;;;;;;1.02;0.93;;;;;;;;;;5106428;27;20043;-65
2023/09/02 14:23:53;;;;;;;1.25;1.00;;;;;;;;;;5104118;28;20055;-64
2023/09/02 14:26:20;;;;;;;1.20;0.90;;;;;;;;;;5108388;28;20047;-64
2023/09/02 14:28:49;;;;;;;2.13;1.00;;;;;;;;;;5107529;28;20044;-65
2023/09/02 14:31:16;;;;;;;1.85;1.02;;;;;;;;;;5105162;28;20089;-64
2023/09/02 14:33:44;;;;;;;1.30;0.90;;;;;;;;;;5109609;28;20050;-64
2023/09/02 14:36:11;;;;;;;1.05;0.90;;;;;;;;;;5111120;28;20054;-64
2023/09/02 14:38:38;;;;;;;1.00;0.90;;;;;;;;;;5109778;28;20372;-64
2023/09/02 14:41:05;;;;;;;1.35;0.80;;;;;;;;;;5111614;28;20051;-65
2023/09/02 14:43:33;;;;;;;2.42;1.10;;;;;;;;;;5091883;28;20475;-64
2023/09/02 14:46:01;;;;;;;0.73;0.70;;;;;;;;;;5110682;28;20047;-65
2023/09/02 14:48:28;;;;;;;0.90;0.80;;;;;;;;;;5103368;28;20044;-65